Weather History for KEGV - September, 2013

Change the Weather History Date:

Monday, September 30, 2013

  Actual Average Record
Temperature  
Mean Temperature 58 °F -  
Max Temperature 69 °F 58 °F 75 °F (2002)
Min Temperature 47 °F 38 °F 26 °F (1993)
Degree Days  
Heating Degree Days 7    
Growing Degree Days 8 (Base 50)    
Moisture  
Dew Point 42 °F    
Average Humidity 58    
Maximum Humidity 84    
Minimum Humidity 33    
Precipitation  
Precipitation 0.00 in - - ()
Sea Level Pressure  
Sea Level Pressure 29.81 in    
Wind  
Wind Speed 6 mph (South)    
Max Wind Speed 17 mph    
Max Gust Speed 31 mph    
Visibility 10 miles    
Events      
Averages and records for this station are not official NWS values.
T = Trace of Precipitation, MM = Missing Value Source: NWS Daily Summary

Daily Weather History Graph

Daily Weather History Graph

Search for Another Location

Airport or City:

Trip Planner

Search our weather history database for the weather conditions in past years. The results will help you decide how hot, cold, wet, or windy it might be!

Date:

Astronomy

Sep. 30, 2013 Rise Set
Actual Time 6:54 AM CDT 6:38 PM CDT
Civil Twilight 6:24 AM CDT 7:08 PM CDT
Nautical Twilight 5:50 AM CDT 7:42 PM CDT
Astronomical Twilight 5:14 AM CDT 8:18 PM CDT
Moon 2:19 AM CDT (9/30) 4:19 PM CDT (9/30)
Length of Visible Light 12h 43m
Length of Day
11h 44m
Waning Crescent, 19% of the Moon is Illuminated
Sep 30
Waning Crescent
Oct 4
New
Oct 11
First Quarter
Oct 18
Full
Oct 26
Last Quarter

Hourly Weather History & Observations

Time (CDT) Temp. Dew Point Humidity Pressure Visibility Wind Dir Wind Speed Gust Speed Precip Events Conditions
12:15 AM 49.5 °F 43.2 °F 79% 29.94 in 10.0 mi Calm Calm - N/A   Clear
12:35 AM 48.4 °F 43.0 °F 82% 29.93 in 10.0 mi South 3.5 mph - N/A   Clear
12:55 AM 48.0 °F 43.2 °F 83% 29.93 in 10.0 mi South 3.5 mph - N/A   Clear
1:15 AM 47.8 °F 43.2 °F 84% 29.93 in 10.0 mi South 3.5 mph - N/A   Clear
1:35 AM 47.5 °F 43.0 °F 84% 29.93 in 10.0 mi SSE 3.5 mph - N/A   Clear
1:55 AM 47.5 °F 43.0 °F 84% 29.92 in 10.0 mi South 3.5 mph - N/A   Clear
2:15 AM 47.7 °F 43.0 °F 84% 29.92 in 10.0 mi South 3.5 mph - N/A   Clear
2:35 AM 47.3 °F 42.8 °F 84% 29.91 in 10.0 mi South 3.5 mph - N/A   Clear
2:55 AM 47.8 °F 42.8 °F 83% 29.91 in 10.0 mi South 3.5 mph - N/A   Clear
3:15 AM 47.8 °F 42.6 °F 82% 29.90 in 10.0 mi South 4.6 mph - N/A   Clear
3:35 AM 48.0 °F 42.3 °F 80% 29.91 in 10.0 mi South 4.6 mph - N/A   Clear
3:55 AM 48.2 °F 42.3 °F 80% 29.91 in 10.0 mi South 4.6 mph - N/A   Clear
4:15 AM 48.4 °F 42.1 °F 79% 29.91 in 10.0 mi South 4.6 mph - N/A   Clear
4:35 AM 47.8 °F 41.9 °F 80% 29.90 in 10.0 mi South 4.6 mph - N/A   Clear
4:55 AM 48.2 °F 41.9 °F 79% 29.89 in 10.0 mi South 4.6 mph - N/A   Clear
5:15 AM 48.6 °F 41.9 °F 78% 29.88 in 10.0 mi South 5.8 mph - N/A   Clear
5:35 AM 48.4 °F 41.9 °F 78% 29.88 in 10.0 mi South 4.6 mph - N/A   Clear
5:55 AM 48.2 °F 41.9 °F 79% 29.88 in 10.0 mi South 4.6 mph - N/A   Clear
6:15 AM 48.6 °F 41.9 °F 78% 29.88 in 10.0 mi South 3.5 mph - N/A   Clear
6:35 AM 49.1 °F 42.1 °F 77% 29.88 in 10.0 mi South 5.8 mph - N/A   Clear
6:55 AM 49.5 °F 41.9 °F 75% 29.87 in 10.0 mi South 5.8 mph - N/A   Clear
7:15 AM 50.2 °F 42.1 °F 74% 29.86 in 10.0 mi South 8.1 mph - N/A   Clear
7:35 AM 50.9 °F 41.9 °F 71% 29.86 in 10.0 mi South 5.8 mph - N/A   Clear
7:55 AM 50.9 °F 41.9 °F 71% 29.86 in 10.0 mi South 5.8 mph - N/A   Clear
8:15 AM 52.5 °F 42.4 °F 69% 29.85 in 10.0 mi South 6.9 mph - N/A   Clear
8:35 AM 54.3 °F 42.8 °F 65% 29.85 in 10.0 mi South 5.8 mph - N/A   Clear
8:55 AM 55.8 °F 42.8 °F 62% 29.85 in 10.0 mi South 9.2 mph - N/A   Clear
9:15 AM 56.5 °F 42.4 °F 59% 29.84 in 10.0 mi South 11.5 mph 17.3 mph N/A   Clear
9:35 AM 58.6 °F 42.1 °F 54% 29.84 in 10.0 mi SSW 8.1 mph 17.3 mph N/A   Clear
9:55 AM 60.1 °F 41.9 °F 51% 29.84 in 10.0 mi SSW 8.1 mph 18.4 mph N/A   Clear
10:15 AM 61.7 °F 41.9 °F 48% 29.83 in 10.0 mi SSW 12.7 mph 25.3 mph N/A   Clear
10:35 AM 63.5 °F 42.3 °F 46% 29.82 in 10.0 mi South 11.5 mph 17.3 mph N/A   Clear
10:55 AM 63.5 °F 41.9 °F 45% 29.81 in 10.0 mi SSW 17.3 mph 26.5 mph N/A   Clear
11:15 AM 63.9 °F 41.7 °F 44% 29.81 in 10.0 mi South 13.8 mph 23.0 mph N/A   Clear
11:35 AM 64.6 °F 42.1 °F 44% 29.80 in 10.0 mi SSW 9.2 mph 26.5 mph N/A   Clear
11:55 AM 66.2 °F 41.5 °F 41% 29.79 in 10.0 mi SSW 12.7 mph 23.0 mph N/A   Clear
12:15 PM 66.4 °F 40.3 °F 38% 29.79 in 10.0 mi SSW 13.8 mph 23.0 mph N/A   Clear
12:35 PM 66.4 °F 40.3 °F 38% 29.78 in 10.0 mi South 13.8 mph 25.3 mph N/A   Clear
12:55 PM 66.2 °F 40.3 °F 39% 29.78 in 10.0 mi South 11.5 mph 24.2 mph N/A   Clear
1:15 PM 66.4 °F 39.6 °F 37% 29.77 in 10.0 mi South 16.1 mph 31.1 mph N/A   Clear
1:35 PM 68.0 °F 40.3 °F 36% 29.75 in 10.0 mi SSW 13.8 mph 20.7 mph N/A   Clear
1:55 PM 68.2 °F 39.7 °F 35% 29.75 in 10.0 mi SW 11.5 mph 24.2 mph N/A   Clear
2:15 PM 68.5 °F 39.7 °F 35% 29.75 in 10.0 mi SSW 11.5 mph 23.0 mph N/A   Clear
2:35 PM 68.7 °F 38.7 °F 33% 29.75 in 10.0 mi SSW 13.8 mph 28.8 mph N/A   Clear
2:55 PM 68.9 °F 38.7 °F 33% 29.75 in 10.0 mi SSW 11.5 mph 25.3 mph N/A   Clear
3:15 PM 68.9 °F 38.7 °F 33% 29.74 in 10.0 mi SSW 13.8 mph 23.0 mph N/A   Clear
3:35 PM 68.9 °F 39.0 °F 34% 29.73 in 10.0 mi SW 13.8 mph 20.7 mph N/A   Clear
3:55 PM 69.1 °F 38.8 °F 33% 29.73 in 10.0 mi SW 13.8 mph 24.2 mph N/A   Clear
4:15 PM 68.9 °F 39.2 °F 34% 29.73 in 10.0 mi SW 12.7 mph 23.0 mph N/A   Clear
4:35 PM 68.7 °F 39.4 °F 34% 29.73 in 10.0 mi SW 10.4 mph 19.6 mph N/A   Clear
4:55 PM 66.4 °F 38.7 °F 36% 29.73 in 10.0 mi SSW 10.4 mph 19.6 mph N/A   Clear
5:15 PM 64.9 °F 41.2 °F 42% 29.74 in 10.0 mi South 4.6 mph - N/A   Clear
5:35 PM 64.8 °F 41.4 °F 42% 29.73 in 10.0 mi SSW 6.9 mph - N/A   Clear
5:55 PM 65.7 °F 39.9 °F 39% 29.74 in 10.0 mi SW 6.9 mph - N/A   Clear
6:15 PM 64.4 °F 40.6 °F 42% 29.74 in 10.0 mi SSW 8.1 mph - N/A   Clear
6:35 PM 63.1 °F 41.2 °F 45% 29.75 in 10.0 mi SSW 6.9 mph - N/A   Clear
6:55 PM 61.9 °F 41.5 °F 47% 29.75 in 10.0 mi SSW 5.8 mph - N/A   Clear
7:15 PM 61.2 °F 41.9 °F 49% 29.75 in 10.0 mi SSW 4.6 mph - N/A   Clear
7:35 PM 59.9 °F 42.3 °F 52% 29.76 in 10.0 mi SSW 3.5 mph - N/A   Clear
7:55 PM 59.0 °F 42.8 °F 55% 29.76 in 10.0 mi South 4.6 mph - N/A   Clear
8:15 PM 58.1 °F 42.8 °F 57% 29.76 in 10.0 mi SSW 3.5 mph - N/A   Clear
8:35 PM 58.3 °F 42.8 °F 56% 29.76 in 10.0 mi South 4.6 mph - N/A   Clear
8:55 PM 58.1 °F 42.8 °F 57% 29.77 in 10.0 mi South 3.5 mph - N/A   Clear
9:15 PM 57.4 °F 43.0 °F 59% 29.77 in 10.0 mi South 3.5 mph - N/A   Clear
9:35 PM 57.0 °F 43.0 °F 59% 29.77 in 10.0 mi South 3.5 mph - N/A   Clear
9:55 PM 56.7 °F 43.2 °F 61% 29.76 in 10.0 mi Calm Calm - N/A   Clear
10:15 PM 56.5 °F 43.3 °F 61% 29.77 in 10.0 mi South 3.5 mph - N/A   Clear
10:35 PM 56.5 °F 43.3 °F 61% 29.77 in 10.0 mi South 4.6 mph - N/A   Clear
10:55 PM 56.5 °F 43.2 °F 61% 29.76 in 10.0 mi South 5.8 mph - N/A   Clear
11:15 PM 56.7 °F 43.7 °F 62% 29.76 in 10.0 mi South 3.5 mph - N/A   Clear
11:35 PM 56.3 °F 43.7 °F 63% 29.76 in 10.0 mi South 3.5 mph - N/A   Clear
11:55 PM 56.5 °F 43.7 °F 62% 29.75 in 10.0 mi Calm Calm - N/A   Clear